sensor_id;sensor_type;location;lat;lon;timestamp;temperature;humidity
20526;DHT22;10421;49.142;9.232;2022-08-05T00:00:29;31.70;50.20
20526;DHT22;10421;49.142;9.232;2022-08-05T00:02:56;31.70;50.30
20526;DHT22;10421;49.142;9.232;2022-08-05T00:05:23;31.70;50.50
20526;DHT22;10421;49.142;9.232;2022-08-05T00:07:49;31.60;50.60
20526;DHT22;10421;49.142;9.232;2022-08-05T00:10:16;31.60;50.70
20526;DHT22;10421;49.142;9.232;2022-08-05T00:12:44;31.50;50.80
20526;DHT22;10421;49.142;9.232;2022-08-05T00:15:11;31.50;51.00
20526;DHT22;10421;49.142;9.232;2022-08-05T00:17:37;31.50;51.10
20526;DHT22;10421;49.142;9.232;2022-08-05T00:20:05;31.40;51.20
20526;DHT22;10421;49.142;9.232;2022-08-05T00:22:32;31.40;51.30
20526;DHT22;10421;49.142;9.232;2022-08-05T00:24:58;31.40;51.40
20526;DHT22;10421;49.142;9.232;2022-08-05T00:27:25;31.40;51.60
20526;DHT22;10421;49.142;9.232;2022-08-05T00:29:54;31.40;51.60
20526;DHT22;10421;49.142;9.232;2022-08-05T00:32:20;31.40;51.40
20526;DHT22;10421;49.142;9.232;2022-08-05T00:34:47;31.30;51.10
20526;DHT22;10421;49.142;9.232;2022-08-05T00:37:14;31.30;51.00
20526;DHT22;10421;49.142;9.232;2022-08-05T00:39:40;31.30;50.70
20526;DHT22;10421;49.142;9.232;2022-08-05T00:42:07;31.30;50.40
20526;DHT22;10421;49.142;9.232;2022-08-05T00:44:34;31.30;50.20
20526;DHT22;10421;49.142;9.232;2022-08-05T00:47:02;31.20;50.10
20526;DHT22;10421;49.142;9.232;2022-08-05T00:49:29;31.20;50.30
20526;DHT22;10421;49.142;9.232;2022-08-05T00:51:56;31.20;50.50
20526;DHT22;10421;49.142;9.232;2022-08-05T00:54:23;31.10;51.60
20526;DHT22;10421;49.142;9.232;2022-08-05T00:56:49;31.10;51.90
20526;DHT22;10421;49.142;9.232;2022-08-05T00:59:16;31.00;52.10
20526;DHT22;10421;49.142;9.232;2022-08-05T01:01:43;31.00;52.20
20526;DHT22;10421;49.142;9.232;2022-08-05T01:04:11;30.90;52.20
20526;DHT22;10421;49.142;9.232;2022-08-05T01:06:37;30.90;52.00
20526;DHT22;10421;49.142;9.232;2022-08-05T01:09:04;30.80;51.80
20526;DHT22;10421;49.142;9.232;2022-08-05T01:11:34;30.70;51.50
20526;DHT22;10421;49.142;9.232;2022-08-05T01:14:05;30.60;51.30
20526;DHT22;10421;49.142;9.232;2022-08-05T01:16:41;30.50;51.20
20526;DHT22;10421;49.142;9.232;2022-08-05T01:19:18;30.40;51.10
20526;DHT22;10421;49.142;9.232;2022-08-05T01:21:59;30.40;51.10
20526;DHT22;10421;49.142;9.232;2022-08-05T01:28:02;30.30;51.00
20526;DHT22;10421;49.142;9.232;2022-08-05T01:30:37;30.30;51.00
20526;DHT22;10421;49.142;9.232;2022-08-05T01:33:08;30.30;51.00
20526;DHT22;10421;49.142;9.232;2022-08-05T01:35:39;30.30;51.00
20526;DHT22;10421;49.142;9.232;2022-08-05T01:38:07;30.40;51.30
20526;DHT22;10421;49.142;9.232;2022-08-05T01:40:36;30.40;51.40
20526;DHT22;10421;49.142;9.232;2022-08-05T01:43:06;30.40;51.60
20526;DHT22;10421;49.142;9.232;2022-08-05T01:45:36;30.40;51.60
20526;DHT22;10421;49.142;9.232;2022-08-05T01:48:04;30.40;51.90
20526;DHT22;10421;49.142;9.232;2022-08-05T01:50:36;30.40;52.00
20526;DHT22;10421;49.142;9.232;2022-08-05T01:53:06;30.40;52.30
20526;DHT22;10421;49.142;9.232;2022-08-05T01:55:34;30.40;52.70
20526;DHT22;10421;49.142;9.232;2022-08-05T01:58:05;30.40;53.00
20526;DHT22;10421;49.142;9.232;2022-08-05T02:00:35;30.40;53.30
20526;DHT22;10421;49.142;9.232;2022-08-05T02:03:07;30.40;53.40
20526;DHT22;10421;49.142;9.232;2022-08-05T02:05:37;30.40;53.50
20526;DHT22;10421;49.142;9.232;2022-08-05T02:08:05;30.40;53.50
20526;DHT22;10421;49.142;9.232;2022-08-05T02:10:37;30.30;53.30
20526;DHT22;10421;49.142;9.232;2022-08-05T02:13:11;30.30;53.30
20526;DHT22;10421;49.142;9.232;2022-08-05T02:15:42;30.30;53.40
20526;DHT22;10421;49.142;9.232;2022-08-05T02:18:14;30.20;53.40
20526;DHT22;10421;49.142;9.232;2022-08-05T02:20:46;30.20;53.50
20526;DHT22;10421;49.142;9.232;2022-08-05T02:23:14;30.20;53.50
20526;DHT22;10421;49.142;9.232;2022-08-05T02:25:43;30.10;53.50
20526;DHT22;10421;49.142;9.232;2022-08-05T02:28:13;30.10;53.50
20526;DHT22;10421;49.142;9.232;2022-08-05T02:30:43;30.00;53.60
20526;DHT22;10421;49.142;9.232;2022-08-05T02:33:14;30.00;53.60
20526;DHT22;10421;49.142;9.232;2022-08-05T02:35:43;29.90;53.80
20526;DHT22;10421;49.142;9.232;2022-08-05T02:38:11;29.90;54.00
20526;DHT22;10421;49.142;9.232;2022-08-05T02:40:41;29.90;54.20
20526;DHT22;10421;49.142;9.232;2022-08-05T02:43:10;29.80;54.10
20526;DHT22;10421;49.142;9.232;2022-08-05T02:45:39;29.80;54.20
20526;DHT22;10421;49.142;9.232;2022-08-05T02:48:07;29.80;54.20
20526;DHT22;10421;49.142;9.232;2022-08-05T02:50:36;29.90;54.40
20526;DHT22;10421;49.142;9.232;2022-08-05T02:53:04;29.80;54.30
20526;DHT22;10421;49.142;9.232;2022-08-05T02:55:31;29.80;54.30
20526;DHT22;10421;49.142;9.232;2022-08-05T02:57:59;29.80;54.30
20526;DHT22;10421;49.142;9.232;2022-08-05T03:00:26;29.80;54.40
20526;DHT22;10421;49.142;9.232;2022-08-05T03:02:56;29.80;54.40
20526;DHT22;10421;49.142;9.232;2022-08-05T03:05:23;29.80;54.50
20526;DHT22;10421;49.142;9.232;2022-08-05T03:07:50;29.80;54.70
20526;DHT22;10421;49.142;9.232;2022-08-05T03:10:17;29.80;54.70
20526;DHT22;10421;49.142;9.232;2022-08-05T03:12:45;29.80;54.80
20526;DHT22;10421;49.142;9.232;2022-08-05T03:15:12;29.80;54.80
20526;DHT22;10421;49.142;9.232;2022-08-05T03:17:38;29.80;54.90
20526;DHT22;10421;49.142;9.232;2022-08-05T03:20:08;29.70;54.90
20526;DHT22;10421;49.142;9.232;2022-08-05T03:22:35;29.70;55.10
20526;DHT22;10421;49.142;9.232;2022-08-05T03:25:02;29.70;55.80
20526;DHT22;10421;49.142;9.232;2022-08-05T03:27:29;29.70;55.30
20526;DHT22;10421;49.142;9.232;2022-08-05T03:29:57;29.70;55.40
20526;DHT22;10421;49.142;9.232;2022-08-05T03:32:23;29.70;55.60
20526;DHT22;10421;49.142;9.232;2022-08-05T03:34:51;29.60;55.60
20526;DHT22;10421;49.142;9.232;2022-08-05T03:37:19;29.60;55.70
20526;DHT22;10421;49.142;9.232;2022-08-05T03:39:57;29.50;55.80
20526;DHT22;10421;49.142;9.232;2022-08-05T03:42:24;29.50;55.90
20526;DHT22;10421;49.142;9.232;2022-08-05T03:44:51;29.50;55.90
20526;DHT22;10421;49.142;9.232;2022-08-05T03:47:17;29.40;55.80
20526;DHT22;10421;49.142;9.232;2022-08-05T03:49:44;29.40;55.80
20526;DHT22;10421;49.142;9.232;2022-08-05T03:52:15;29.40;55.80
20526;DHT22;10421;49.142;9.232;2022-08-05T03:54:51;29.40;55.90
20526;DHT22;10421;49.142;9.232;2022-08-05T03:57:22;29.30;55.80
20526;DHT22;10421;49.142;9.232;2022-08-05T03:59:54;29.30;55.90
20526;DHT22;10421;49.142;9.232;2022-08-05T04:02:23;29.30;55.90
20526;DHT22;10421;49.142;9.232;2022-08-05T04:04:51;29.30;56.10
20526;DHT22;10421;49.142;9.232;2022-08-05T04:07:18;29.20;56.20
20526;DHT22;10421;49.142;9.232;2022-08-05T04:09:46;29.30;56.30
20526;DHT22;10421;49.142;9.232;2022-08-05T04:12:13;29.20;56.40
20526;DHT22;10421;49.142;9.232;2022-08-05T04:14:41;29.30;56.60
20526;DHT22;10421;49.142;9.232;2022-08-05T04:17:08;29.20;56.60
20526;DHT22;10421;49.142;9.232;2022-08-05T04:19:41;29.30;56.70
20526;DHT22;10421;49.142;9.232;2022-08-05T04:22:08;29.30;56.70
20526;DHT22;10421;49.142;9.232;2022-08-05T04:24:34;29.30;57.00
20526;DHT22;10421;49.142;9.232;2022-08-05T04:27:03;29.30;56.70
20526;DHT22;10421;49.142;9.232;2022-08-05T04:29:30;29.30;56.70
20526;DHT22;10421;49.142;9.232;2022-08-05T04:31:56;29.30;56.80
20526;DHT22;10421;49.142;9.232;2022-08-05T04:34:23;29.30;57.20
20526;DHT22;10421;49.142;9.232;2022-08-05T04:36:50;29.30;57.50
20526;DHT22;10421;49.142;9.232;2022-08-05T04:39:17;29.30;58.10
20526;DHT22;10421;49.142;9.232;2022-08-05T04:41:43;29.20;58.70
20526;DHT22;10421;49.142;9.232;2022-08-05T04:44:11;29.20;59.10
20526;DHT22;10421;49.142;9.232;2022-08-05T04:46:38;29.20;59.30
20526;DHT22;10421;49.142;9.232;2022-08-05T04:49:05;29.20;59.30
20526;DHT22;10421;49.142;9.232;2022-08-05T04:51:32;29.20;60.10
20526;DHT22;10421;49.142;9.232;2022-08-05T04:53:59;29.20;59.60
20526;DHT22;10421;49.142;9.232;2022-08-05T04:56:26;29.10;59.70
20526;DHT22;10421;49.142;9.232;2022-08-05T04:58:53;29.10;60.10
20526;DHT22;10421;49.142;9.232;2022-08-05T05:01:21;29.00;60.50
20526;DHT22;10421;49.142;9.232;2022-08-05T05:03:47;29.00;60.60
20526;DHT22;10421;49.142;9.232;2022-08-05T05:06:14;29.10;60.70
20526;DHT22;10421;49.142;9.232;2022-08-05T05:08:41;29.00;60.80
20526;DHT22;10421;49.142;9.232;2022-08-05T05:11:08;29.10;60.80
20526;DHT22;10421;49.142;9.232;2022-08-05T05:13:34;29.10;60.70
20526;DHT22;10421;49.142;9.232;2022-08-05T05:16:01;29.20;60.90
20526;DHT22;10421;49.142;9.232;2022-08-05T05:18:29;29.20;61.00
20526;DHT22;10421;49.142;9.232;2022-08-05T05:20:56;29.30;61.30
20526;DHT22;10421;49.142;9.232;2022-08-05T05:23:22;29.20;61.80
20526;DHT22;10421;49.142;9.232;2022-08-05T05:25:49;29.20;61.80
20526;DHT22;10421;49.142;9.232;2022-08-05T05:28:16;29.20;62.00
20526;DHT22;10421;49.142;9.232;2022-08-05T05:30:42;29.20;62.10
20526;DHT22;10421;49.142;9.232;2022-08-05T05:33:09;29.30;62.10
20526;DHT22;10421;49.142;9.232;2022-08-05T05:35:37;29.30;62.20
20526;DHT22;10421;49.142;9.232;2022-08-05T05:38:04;29.30;62.00
20526;DHT22;10421;49.142;9.232;2022-08-05T05:40:32;29.30;61.80
20526;DHT22;10421;49.142;9.232;2022-08-05T05:42:59;29.30;61.50
20526;DHT22;10421;49.142;9.232;2022-08-05T05:45:26;29.30;61.10
20526;DHT22;10421;49.142;9.232;2022-08-05T05:47:52;29.40;60.80
20526;DHT22;10421;49.142;9.232;2022-08-05T05:50:19;29.40;60.50
20526;DHT22;10421;49.142;9.232;2022-08-05T05:52:47;29.40;60.30
20526;DHT22;10421;49.142;9.232;2022-08-05T05:55:16;29.50;60.30
20526;DHT22;10421;49.142;9.232;2022-08-05T05:57:44;29.50;60.20
20526;DHT22;10421;49.142;9.232;2022-08-05T06:00:14;29.50;60.20
20526;DHT22;10421;49.142;9.232;2022-08-05T06:02:40;29.60;60.20
20526;DHT22;10421;49.142;9.232;2022-08-05T06:05:09;29.60;60.30
20526;DHT22;10421;49.142;9.232;2022-08-05T06:07:36;29.70;60.10
20526;DHT22;10421;49.142;9.232;2022-08-05T06:10:05;29.60;60.00
20526;DHT22;10421;49.142;9.232;2022-08-05T06:12:33;29.70;59.80
20526;DHT22;10421;49.142;9.232;2022-08-05T06:15:00;29.80;59.70
20526;DHT22;10421;49.142;9.232;2022-08-05T06:17:27;29.80;59.70
20526;DHT22;10421;49.142;9.232;2022-08-05T06:19:54;29.90;59.60
20526;DHT22;10421;49.142;9.232;2022-08-05T06:22:22;29.90;59.60
20526;DHT22;10421;49.142;9.232;2022-08-05T06:24:49;29.90;59.60
20526;DHT22;10421;49.142;9.232;2022-08-05T06:27:17;30.00;59.50
20526;DHT22;10421;49.142;9.232;2022-08-05T06:29:45;30.00;59.50
20526;DHT22;10421;49.142;9.232;2022-08-05T06:32:12;30.10;59.50
20526;DHT22;10421;49.142;9.232;2022-08-05T06:34:38;30.20;59.40
20526;DHT22;10421;49.142;9.232;2022-08-05T06:37:05;30.20;59.20
20526;DHT22;10421;49.142;9.232;2022-08-05T06:39:32;30.30;59.20
20526;DHT22;10421;49.142;9.232;2022-08-05T06:42:00;30.30;58.90
20526;DHT22;10421;49.142;9.232;2022-08-05T06:44:28;30.30;58.70
20526;DHT22;10421;49.142;9.232;2022-08-05T06:46:55;30.40;57.90
20526;DHT22;10421;49.142;9.232;2022-08-05T06:49:23;30.40;57.30
20526;DHT22;10421;49.142;9.232;2022-08-05T06:51:51;30.40;57.00
20526;DHT22;10421;49.142;9.232;2022-08-05T06:54:17;30.40;56.80
20526;DHT22;10421;49.142;9.232;2022-08-05T06:56:44;30.40;56.40
20526;DHT22;10421;49.142;9.232;2022-08-05T06:59:11;30.40;56.30
20526;DHT22;10421;49.142;9.232;2022-08-05T07:01:40;30.40;56.50
20526;DHT22;10421;49.142;9.232;2022-08-05T07:04:06;30.40;56.50
20526;DHT22;10421;49.142;9.232;2022-08-05T07:06:33;30.40;56.70
20526;DHT22;10421;49.142;9.232;2022-08-05T07:09:00;30.40;56.90
20526;DHT22;10421;49.142;9.232;2022-08-05T07:11:27;30.50;57.60
20526;DHT22;10421;49.142;9.232;2022-08-05T07:13:55;30.50;58.20
20526;DHT22;10421;49.142;9.232;2022-08-05T07:16:41;30.40;58.90
20526;DHT22;10421;49.142;9.232;2022-08-05T07:19:24;30.40;59.70
20526;DHT22;10421;49.142;9.232;2022-08-05T07:21:51;30.30;61.60
20526;DHT22;10421;49.142;9.232;2022-08-05T07:24:18;30.30;63.00
20526;DHT22;10421;49.142;9.232;2022-08-05T07:26:45;30.30;64.00
20526;DHT22;10421;49.142;9.232;2022-08-05T07:29:13;30.30;65.30
20526;DHT22;10421;49.142;9.232;2022-08-05T07:31:41;30.30;66.40
20526;DHT22;10421;49.142;9.232;2022-08-05T07:34:08;30.30;67.20
20526;DHT22;10421;49.142;9.232;2022-08-05T07:36:35;30.30;68.20
20526;DHT22;10421;49.142;9.232;2022-08-05T07:39:03;30.40;68.20
20526;DHT22;10421;49.142;9.232;2022-08-05T07:41:30;30.50;67.80
20526;DHT22;10421;49.142;9.232;2022-08-05T07:43:58;30.50;66.10
20526;DHT22;10421;49.142;9.232;2022-08-05T07:46:26;30.40;63.70
20526;DHT22;10421;49.142;9.232;2022-08-05T07:48:57;30.40;63.40
20526;DHT22;10421;49.142;9.232;2022-08-05T07:51:24;30.40;62.20
20526;DHT22;10421;49.142;9.232;2022-08-05T07:53:50;30.40;62.60
20526;DHT22;10421;49.142;9.232;2022-08-05T07:56:17;30.40;62.30
20526;DHT22;10421;49.142;9.232;2022-08-05T07:58:44;30.40;62.50
20526;DHT22;10421;49.142;9.232;2022-08-05T08:01:10;30.30;61.70
20526;DHT22;10421;49.142;9.232;2022-08-05T08:03:37;30.20;61.00
20526;DHT22;10421;49.142;9.232;2022-08-05T08:06:06;30.20;61.60
20526;DHT22;10421;49.142;9.232;2022-08-05T08:08:32;30.20;61.90
20526;DHT22;10421;49.142;9.232;2022-08-05T08:10:59;30.20;62.40
20526;DHT22;10421;49.142;9.232;2022-08-05T08:13:26;30.20;62.40
20526;DHT22;10421;49.142;9.232;2022-08-05T08:15:53;30.20;61.70
20526;DHT22;10421;49.142;9.232;2022-08-05T08:18:19;30.20;61.50
20526;DHT22;10421;49.142;9.232;2022-08-05T08:20:46;30.30;61.30
20526;DHT22;10421;49.142;9.232;2022-08-05T08:23:15;30.30;61.70
20526;DHT22;10421;49.142;9.232;2022-08-05T08:25:42;30.20;61.70
20526;DHT22;10421;49.142;9.232;2022-08-05T08:28:09;30.20;61.40
20526;DHT22;10421;49.142;9.232;2022-08-05T08:30:36;30.30;61.70
20526;DHT22;10421;49.142;9.232;2022-08-05T08:33:06;30.30;60.90
20526;DHT22;10421;49.142;9.232;2022-08-05T08:35:34;30.30;60.90
20526;DHT22;10421;49.142;9.232;2022-08-05T08:38:00;30.30;61.20
20526;DHT22;10421;49.142;9.232;2022-08-05T08:40:31;30.40;60.90
20526;DHT22;10421;49.142;9.232;2022-08-05T08:42:59;30.50;60.10
20526;DHT22;10421;49.142;9.232;2022-08-05T08:45:26;30.60;59.60
20526;DHT22;10421;49.142;9.232;2022-08-05T08:47:53;30.60;60.40
20526;DHT22;10421;49.142;9.232;2022-08-05T08:50:21;30.70;60.10
20526;DHT22;10421;49.142;9.232;2022-08-05T08:52:50;30.70;59.50
20526;DHT22;10421;49.142;9.232;2022-08-05T08:55:19;30.80;59.40
20526;DHT22;10421;49.142;9.232;2022-08-05T08:57:47;30.90;59.60
20526;DHT22;10421;49.142;9.232;2022-08-05T09:00:14;30.90;59.40
20526;DHT22;10421;49.142;9.232;2022-08-05T09:02:42;31.00;59.40
20526;DHT22;10421;49.142;9.232;2022-08-05T09:05:10;31.10;59.50
20526;DHT22;10421;49.142;9.232;2022-08-05T09:07:38;31.30;59.30
20526;DHT22;10421;49.142;9.232;2022-08-05T09:10:05;31.60;59.10
20526;DHT22;10421;49.142;9.232;2022-08-05T09:12:33;31.70;58.30
20526;DHT22;10421;49.142;9.232;2022-08-05T09:15:02;31.70;57.80
20526;DHT22;10421;49.142;9.232;2022-08-05T09:17:29;31.60;57.70
20526;DHT22;10421;49.142;9.232;2022-08-05T09:19:56;31.80;58.00
20526;DHT22;10421;49.142;9.232;2022-08-05T09:22:23;31.80;57.30
20526;DHT22;10421;49.142;9.232;2022-08-05T09:25:00;31.80;57.30
20526;DHT22;10421;49.142;9.232;2022-08-05T09:27:31;31.90;57.30
20526;DHT22;10421;49.142;9.232;2022-08-05T09:29:59;31.90;57.20
20526;DHT22;10421;49.142;9.232;2022-08-05T09:32:37;31.90;56.90
20526;DHT22;10421;49.142;9.232;2022-08-05T09:35:11;31.90;56.50
20526;DHT22;10421;49.142;9.232;2022-08-05T09:37:48;31.90;56.30
20526;DHT22;10421;49.142;9.232;2022-08-05T09:40:32;32.00;56.40
20526;DHT22;10421;49.142;9.232;2022-08-05T09:42:59;32.10;56.00
20526;DHT22;10421;49.142;9.232;2022-08-05T09:45:37;32.20;56.00
20526;DHT22;10421;49.142;9.232;2022-08-05T09:48:23;32.30;56.00
20526;DHT22;10421;49.142;9.232;2022-08-05T09:50:55;32.50;56.00
20526;DHT22;10421;49.142;9.232;2022-08-05T09:53:23;32.50;55.30
20526;DHT22;10421;49.142;9.232;2022-08-05T09:55:52;32.50;54.80
20526;DHT22;10421;49.142;9.232;2022-08-05T09:58:19;32.40;54.90
20526;DHT22;10421;49.142;9.232;2022-08-05T10:00:53;32.40;54.80
20526;DHT22;10421;49.142;9.232;2022-08-05T10:03:22;32.40;54.90
20526;DHT22;10421;49.142;9.232;2022-08-05T10:06:05;32.60;54.90
20526;DHT22;10421;49.142;9.232;2022-08-05T10:08:32;32.70;54.20
20526;DHT22;10421;49.142;9.232;2022-08-05T10:11:01;32.70;54.00
20526;DHT22;10421;49.142;9.232;2022-08-05T10:13:31;32.80;54.40
20526;DHT22;10421;49.142;9.232;2022-08-05T10:15:57;32.80;54.20
20526;DHT22;10421;49.142;9.232;2022-08-05T10:18:26;33.00;54.60
20526;DHT22;10421;49.142;9.232;2022-08-05T10:20:58;33.00;53.50
20526;DHT22;10421;49.142;9.232;2022-08-05T10:23:27;33.00;53.00
20526;DHT22;10421;49.142;9.232;2022-08-05T10:25:55;33.00;52.60
20526;DHT22;10421;49.142;9.232;2022-08-05T10:28:22;32.90;52.80
20526;DHT22;10421;49.142;9.232;2022-08-05T10:30:50;33.00;52.90
20526;DHT22;10421;49.142;9.232;2022-08-05T10:33:17;33.10;52.90
20526;DHT22;10421;49.142;9.232;2022-08-05T10:35:45;33.00;52.10
20526;DHT22;10421;49.142;9.232;2022-08-05T10:38:12;33.00;52.20
20526;DHT22;10421;49.142;9.232;2022-08-05T10:40:45;33.10;52.00
20526;DHT22;10421;49.142;9.232;2022-08-05T10:43:20;33.00;51.80
20526;DHT22;10421;49.142;9.232;2022-08-05T10:45:57;33.20;51.80
20526;DHT22;10421;49.142;9.232;2022-08-05T10:48:32;33.40;51.70
20526;DHT22;10421;49.142;9.232;2022-08-05T10:51:04;33.40;51.50
20526;DHT22;10421;49.142;9.232;2022-08-05T10:53:42;33.60;51.40
20526;DHT22;10421;49.142;9.232;2022-08-05T10:56:12;33.70;50.50
20526;DHT22;10421;49.142;9.232;2022-08-05T10:59:00;33.70;49.70
20526;DHT22;10421;49.142;9.232;2022-08-05T11:01:30;33.80;49.40
20526;DHT22;10421;49.142;9.232;2022-08-05T11:04:08;33.90;49.80
20526;DHT22;10421;49.142;9.232;2022-08-05T11:07:04;34.00;49.80
20526;DHT22;10421;49.142;9.232;2022-08-05T11:09:37;34.20;49.70
20526;DHT22;10421;49.142;9.232;2022-08-05T11:12:05;34.30;49.30
20526;DHT22;10421;49.142;9.232;2022-08-05T11:15:04;34.40;47.20
20526;DHT22;10421;49.142;9.232;2022-08-05T11:17:32;34.60;45.40
20526;DHT22;10421;49.142;9.232;2022-08-05T11:20:02;34.70;44.40
20526;DHT22;10421;49.142;9.232;2022-08-05T11:22:43;34.80;44.00
20526;DHT22;10421;49.142;9.232;2022-08-05T11:25:29;35.00;43.30
20526;DHT22;10421;49.142;9.232;2022-08-05T11:27:56;35.10;43.60
20526;DHT22;10421;49.142;9.232;2022-08-05T11:30:23;35.30;43.50
20526;DHT22;10421;49.142;9.232;2022-08-05T11:32:50;35.40;43.10
20526;DHT22;10421;49.142;9.232;2022-08-05T11:35:53;35.50;42.30
20526;DHT22;10421;49.142;9.232;2022-08-05T11:38:50;35.50;42.40
20526;DHT22;10421;49.142;9.232;2022-08-05T11:41:21;35.80;42.30
20526;DHT22;10421;49.142;9.232;2022-08-05T11:43:55;35.90;41.60
20526;DHT22;10421;49.142;9.232;2022-08-05T11:46:25;35.90;41.20
20526;DHT22;10421;49.142;9.232;2022-08-05T11:48:53;36.00;40.80
20526;DHT22;10421;49.142;9.232;2022-08-05T11:51:20;36.00;40.70
20526;DHT22;10421;49.142;9.232;2022-08-05T11:53:49;36.10;40.90
20526;DHT22;10421;49.142;9.232;2022-08-05T11:56:16;36.20;41.00
20526;DHT22;10421;49.142;9.232;2022-08-05T11:58:43;36.30;41.30
20526;DHT22;10421;49.142;9.232;2022-08-05T12:01:11;36.10;40.90
20526;DHT22;10421;49.142;9.232;2022-08-05T12:03:43;36.20;41.20
20526;DHT22;10421;49.142;9.232;2022-08-05T12:06:11;36.30;41.20
20526;DHT22;10421;49.142;9.232;2022-08-05T12:08:40;36.40;41.40
20526;DHT22;10421;49.142;9.232;2022-08-05T12:11:10;36.50;41.20
20526;DHT22;10421;49.142;9.232;2022-08-05T12:13:37;36.50;41.20
20526;DHT22;10421;49.142;9.232;2022-08-05T12:16:06;36.50;41.10
20526;DHT22;10421;49.142;9.232;2022-08-05T12:18:33;36.50;40.80
20526;DHT22;10421;49.142;9.232;2022-08-05T12:21:11;36.60;41.10
20526;DHT22;10421;49.142;9.232;2022-08-05T12:23:38;36.70;40.90
20526;DHT22;10421;49.142;9.232;2022-08-05T12:26:05;36.80;41.00
20526;DHT22;10421;49.142;9.232;2022-08-05T12:28:35;36.90;41.00
20526;DHT22;10421;49.142;9.232;2022-08-05T12:31:02;36.90;40.90
20526;DHT22;10421;49.142;9.232;2022-08-05T12:33:29;37.00;40.80
20526;DHT22;10421;49.142;9.232;2022-08-05T12:35:56;37.10;40.70
20526;DHT22;10421;49.142;9.232;2022-08-05T12:38:23;37.20;40.80
20526;DHT22;10421;49.142;9.232;2022-08-05T12:40:50;37.30;40.60
20526;DHT22;10421;49.142;9.232;2022-08-05T12:43:18;37.40;40.50
20526;DHT22;10421;49.142;9.232;2022-08-05T12:45:53;37.50;40.40
20526;DHT22;10421;49.142;9.232;2022-08-05T12:48:21;37.50;40.30
20526;DHT22;10421;49.142;9.232;2022-08-05T12:51:10;37.60;40.40
20526;DHT22;10421;49.142;9.232;2022-08-05T12:53:41;37.50;40.00
20526;DHT22;10421;49.142;9.232;2022-08-05T12:56:19;37.60;39.70
20526;DHT22;10421;49.142;9.232;2022-08-05T12:59:11;37.70;39.60
20526;DHT22;10421;49.142;9.232;2022-08-05T13:01:40;37.70;39.70
20526;DHT22;10421;49.142;9.232;2022-08-05T13:04:07;37.60;39.50
20526;DHT22;10421;49.142;9.232;2022-08-05T13:06:37;37.60;39.70
20526;DHT22;10421;49.142;9.232;2022-08-05T13:09:09;37.60;39.60
20526;DHT22;10421;49.142;9.232;2022-08-05T13:11:41;37.60;39.60
20526;DHT22;10421;49.142;9.232;2022-08-05T13:14:15;37.60;39.40
20526;DHT22;10421;49.142;9.232;2022-08-05T13:16:52;37.50;39.30
20526;DHT22;10421;49.142;9.232;2022-08-05T13:19:23;37.60;39.50
20526;DHT22;10421;49.142;9.232;2022-08-05T13:21:50;37.60;39.50
20526;DHT22;10421;49.142;9.232;2022-08-05T13:24:18;37.60;39.40
20526;DHT22;10421;49.142;9.232;2022-08-05T13:26:46;37.60;39.00
20526;DHT22;10421;49.142;9.232;2022-08-05T13:29:13;37.60;39.10
20526;DHT22;10421;49.142;9.232;2022-08-05T13:31:40;37.60;39.40
20526;DHT22;10421;49.142;9.232;2022-08-05T13:34:09;37.50;39.30
20526;DHT22;10421;49.142;9.232;2022-08-05T13:36:36;37.60;39.40
20526;DHT22;10421;49.142;9.232;2022-08-05T13:39:05;37.70;39.30
20526;DHT22;10421;49.142;9.232;2022-08-05T13:41:32;37.60;39.20
20526;DHT22;10421;49.142;9.232;2022-08-05T13:43:58;37.70;39.30
20526;DHT22;10421;49.142;9.232;2022-08-05T13:46:26;37.70;38.70
20526;DHT22;10421;49.142;9.232;2022-08-05T13:48:53;37.70;38.90
20526;DHT22;10421;49.142;9.232;2022-08-05T13:51:27;37.70;39.30
20526;DHT22;10421;49.142;9.232;2022-08-05T13:53:54;37.70;39.30
20526;DHT22;10421;49.142;9.232;2022-08-05T13:56:21;37.80;39.50
20526;DHT22;10421;49.142;9.232;2022-08-05T13:58:48;37.70;40.10
20526;DHT22;10421;49.142;9.232;2022-08-05T14:01:15;37.70;40.70
20526;DHT22;10421;49.142;9.232;2022-08-05T14:03:41;37.50;41.50
20526;DHT22;10421;49.142;9.232;2022-08-05T14:06:08;37.40;42.00
20526;DHT22;10421;49.142;9.232;2022-08-05T14:08:35;37.20;42.30
20526;DHT22;10421;49.142;9.232;2022-08-05T14:11:02;37.20;42.50
20526;DHT22;10421;49.142;9.232;2022-08-05T14:13:29;37.10;42.70
20526;DHT22;10421;49.142;9.232;2022-08-05T14:15:55;37.00;43.00
20526;DHT22;10421;49.142;9.232;2022-08-05T14:18:22;36.90;43.30
20526;DHT22;10421;49.142;9.232;2022-08-05T14:20:49;36.90;43.40
20526;DHT22;10421;49.142;9.232;2022-08-05T14:23:16;36.80;43.80
20526;DHT22;10421;49.142;9.232;2022-08-05T14:25:44;36.70;43.90
20526;DHT22;10421;49.142;9.232;2022-08-05T14:28:11;36.60;44.00
20526;DHT22;10421;49.142;9.232;2022-08-05T14:30:38;36.50;44.10
20526;DHT22;10421;49.142;9.232;2022-08-05T14:33:04;36.40;44.20
20526;DHT22;10421;49.142;9.232;2022-08-05T14:35:33;36.30;44.50
20526;DHT22;10421;49.142;9.232;2022-08-05T14:38:00;36.20;44.60
20526;DHT22;10421;49.142;9.232;2022-08-05T14:40:27;36.10;44.70
20526;DHT22;10421;49.142;9.232;2022-08-05T14:42:55;36.20;44.90
20526;DHT22;10421;49.142;9.232;2022-08-05T14:45:22;36.10;45.10
20526;DHT22;10421;49.142;9.232;2022-08-05T14:47:48;36.10;45.20
20526;DHT22;10421;49.142;9.232;2022-08-05T14:50:16;36.00;45.20
20526;DHT22;10421;49.142;9.232;2022-08-05T14:52:42;36.00;45.30
20526;DHT22;10421;49.142;9.232;2022-08-05T14:55:09;35.90;45.50
20526;DHT22;10421;49.142;9.232;2022-08-05T14:57:36;35.80;45.80
20526;DHT22;10421;49.142;9.232;2022-08-05T15:00:05;35.80;46.00
20526;DHT22;10421;49.142;9.232;2022-08-05T15:02:32;35.60;46.20
20526;DHT22;10421;49.142;9.232;2022-08-05T15:04:59;35.50;46.30
20526;DHT22;10421;49.142;9.232;2022-08-05T15:07:25;35.40;46.40
20526;DHT22;10421;49.142;9.232;2022-08-05T15:09:52;35.40;46.40
20526;DHT22;10421;49.142;9.232;2022-08-05T15:12:19;35.30;46.40
20526;DHT22;10421;49.142;9.232;2022-08-05T15:14:46;35.20;46.80
20526;DHT22;10421;49.142;9.232;2022-08-05T15:17:14;35.10;47.10
20526;DHT22;10421;49.142;9.232;2022-08-05T15:19:40;35.00;47.30
20526;DHT22;10421;49.142;9.232;2022-08-05T15:22:07;35.00;47.50
20526;DHT22;10421;49.142;9.232;2022-08-05T15:24:34;35.00;47.70
20526;DHT22;10421;49.142;9.232;2022-08-05T15:27:01;34.90;47.80
20526;DHT22;10421;49.142;9.232;2022-08-05T15:29:27;34.90;48.60
20526;DHT22;10421;49.142;9.232;2022-08-05T15:31:54;34.80;48.20
20526;DHT22;10421;49.142;9.232;2022-08-05T15:34:22;34.70;48.50
20526;DHT22;10421;49.142;9.232;2022-08-05T15:36:49;34.70;48.50
20526;DHT22;10421;49.142;9.232;2022-08-05T15:39:16;34.70;48.50
20526;DHT22;10421;49.142;9.232;2022-08-05T15:41:43;34.60;48.60
20526;DHT22;10421;49.142;9.232;2022-08-05T15:44:09;34.50;48.70